sensor_id;sensor_type;location;lat;lon;timestamp;pressure;altitude;pressure_sealevel;temperature;humidity
21290;BME280;10804;48.988;2.408;2023-09-19T00:00:27;100644.19;;;20.82;60.97
21290;BME280;10804;48.988;2.408;2023-09-19T00:02:55;100641.66;;;20.81;61.02
21290;BME280;10804;48.988;2.408;2023-09-19T00:05:25;100652.34;;;20.79;60.92
21290;BME280;10804;48.988;2.408;2023-09-19T00:07:56;100656.94;;;20.77;61.01
21290;BME280;10804;48.988;2.408;2023-09-19T00:10:24;100657.03;;;20.76;60.94
21290;BME280;10804;48.988;2.408;2023-09-19T00:12:53;100650.22;;;20.72;60.85
21290;BME280;10804;48.988;2.408;2023-09-19T00:15:22;100659.03;;;20.72;61.01
21290;BME280;10804;48.988;2.408;2023-09-19T00:17:51;100657.44;;;20.70;61.03
21290;BME280;10804;48.988;2.408;2023-09-19T00:20:19;100663.59;;;20.70;60.93
21290;BME280;10804;48.988;2.408;2023-09-19T00:22:49;100661.13;;;20.67;61.06
21290;BME280;10804;48.988;2.408;2023-09-19T00:25:18;100665.69;;;20.65;61.04
21290;BME280;10804;48.988;2.408;2023-09-19T00:27:46;100670.16;;;20.65;61.05
21290;BME280;10804;48.988;2.408;2023-09-19T00:30:17;100671.22;;;20.62;61.12
21290;BME280;10804;48.988;2.408;2023-09-19T00:32:47;100675.66;;;20.62;61.04
21290;BME280;10804;48.988;2.408;2023-09-19T00:35:16;100682.88;;;20.60;61.17
21290;BME280;10804;48.988;2.408;2023-09-19T00:37:44;100686.56;;;20.57;60.92
21290;BME280;10804;48.988;2.408;2023-09-19T00:40:12;100672.59;;;20.55;61.07
21290;BME280;10804;48.988;2.408;2023-09-19T00:42:41;100683.38;;;20.52;61.05
21290;BME280;10804;48.988;2.408;2023-09-19T00:45:10;100679.81;;;20.53;61.06
21290;BME280;10804;48.988;2.408;2023-09-19T00:47:39;100678.19;;;20.51;61.11
21290;BME280;10804;48.988;2.408;2023-09-19T00:50:09;100683.59;;;20.49;61.03
21290;BME280;10804;48.988;2.408;2023-09-19T00:52:39;100682.84;;;20.47;61.00
21290;BME280;10804;48.988;2.408;2023-09-19T00:55:09;100682.22;;;20.44;61.06
21290;BME280;10804;48.988;2.408;2023-09-19T00:57:37;100683.03;;;20.44;61.19
21290;BME280;10804;48.988;2.408;2023-09-19T01:00:06;100680.50;;;20.43;61.17
21290;BME280;10804;48.988;2.408;2023-09-19T01:02:35;100680.69;;;20.40;61.15
21290;BME280;10804;48.988;2.408;2023-09-19T01:05:03;100679.88;;;20.39;61.03
21290;BME280;10804;48.988;2.408;2023-09-19T01:07:32;100686.22;;;20.37;61.19
21290;BME280;10804;48.988;2.408;2023-09-19T01:10:02;100689.81;;;20.36;61.15
21290;BME280;10804;48.988;2.408;2023-09-19T01:12:37;100687.25;;;20.34;61.13
21290;BME280;10804;48.988;2.408;2023-09-19T01:15:17;100684.69;;;20.33;61.22
21290;BME280;10804;48.988;2.408;2023-09-19T01:17:52;100686.63;;;20.31;61.20
21290;BME280;10804;48.988;2.408;2023-09-19T01:20:29;100689.34;;;20.29;61.17
21290;BME280;10804;48.988;2.408;2023-09-19T01:23:08;100692.22;;;20.26;61.14
21290;BME280;10804;48.988;2.408;2023-09-19T01:26:04;100683.53;;;20.24;61.19
21290;BME280;10804;48.988;2.408;2023-09-19T01:29:01;100689.78;;;20.23;61.16
21290;BME280;10804;48.988;2.408;2023-09-19T01:31:37;100687.22;;;20.22;61.30
21290;BME280;10804;48.988;2.408;2023-09-19T01:34:05;100689.97;;;20.20;61.24
21290;BME280;10804;48.988;2.408;2023-09-19T01:36:35;100681.28;;;20.18;61.21
21290;BME280;10804;48.988;2.408;2023-09-19T01:39:04;100682.31;;;20.16;61.22
21290;BME280;10804;48.988;2.408;2023-09-19T01:41:43;100688.47;;;20.17;61.25
21290;BME280;10804;48.988;2.408;2023-09-19T01:44:17;100679.97;;;20.12;61.34
21290;BME280;10804;48.988;2.408;2023-09-19T01:46:47;100691.31;;;20.13;61.34
21290;BME280;10804;48.988;2.408;2023-09-19T01:49:22;100690.56;;;20.12;61.35
21290;BME280;10804;48.988;2.408;2023-09-19T01:51:57;100689.81;;;20.10;61.36
21290;BME280;10804;48.988;2.408;2023-09-19T01:54:33;100693.44;;;20.09;61.34
21290;BME280;10804;48.988;2.408;2023-09-19T01:57:07;100704.97;;;20.08;61.21
21290;BME280;10804;48.988;2.408;2023-09-19T01:59:43;100711.19;;;20.07;61.36
21290;BME280;10804;48.988;2.408;2023-09-19T02:02:15;100707.03;;;20.02;61.45
21290;BME280;10804;48.988;2.408;2023-09-19T02:04:43;100708.72;;;20.03;61.37
21290;BME280;10804;48.988;2.408;2023-09-19T02:07:11;100712.31;;;20.02;61.38
21290;BME280;10804;48.988;2.408;2023-09-19T02:09:40;100707.97;;;20.02;61.33
21290;BME280;10804;48.988;2.408;2023-09-19T02:12:09;100711.59;;;20.01;61.24
21290;BME280;10804;48.988;2.408;2023-09-19T02:14:37;100706.38;;;19.99;61.34
21290;BME280;10804;48.988;2.408;2023-09-19T02:17:04;100708.28;;;19.97;61.40
21290;BME280;10804;48.988;2.408;2023-09-19T02:19:34;100716.22;;;19.97;61.35
21290;BME280;10804;48.988;2.408;2023-09-19T02:22:04;100711.00;;;19.96;61.37
21290;BME280;10804;48.988;2.408;2023-09-19T02:24:33;100706.59;;;19.96;61.40
21290;BME280;10804;48.988;2.408;2023-09-19T02:27:01;100706.75;;;19.93;61.24
21290;BME280;10804;48.988;2.408;2023-09-19T02:29:32;100711.22;;;19.93;61.30
21290;BME280;10804;48.988;2.408;2023-09-19T02:32:01;100706.84;;;19.92;61.41
21290;BME280;10804;48.988;2.408;2023-09-19T02:34:29;100714.78;;;19.92;61.29
21290;BME280;10804;48.988;2.408;2023-09-19T02:36:58;100713.09;;;19.91;61.28
21290;BME280;10804;48.988;2.408;2023-09-19T02:39:26;100709.72;;;19.89;61.28
21290;BME280;10804;48.988;2.408;2023-09-19T02:41:54;100713.31;;;19.88;61.31
21290;BME280;10804;48.988;2.408;2023-09-19T02:44:21;100710.66;;;19.88;61.38
21290;BME280;10804;48.988;2.408;2023-09-19T02:46:50;100705.44;;;19.86;61.34
21290;BME280;10804;48.988;2.408;2023-09-19T02:49:18;100708.22;;;19.85;61.34
21290;BME280;10804;48.988;2.408;2023-09-19T02:51:45;100710.00;;;19.84;61.42
21290;BME280;10804;48.988;2.408;2023-09-19T02:54:15;100716.25;;;19.83;61.33
21290;BME280;10804;48.988;2.408;2023-09-19T02:56:43;100715.38;;;19.83;61.33
21290;BME280;10804;48.988;2.408;2023-09-19T02:59:11;100712.00;;;19.81;61.35
21290;BME280;10804;48.988;2.408;2023-09-19T03:01:38;100703.19;;;19.80;61.35
21290;BME280;10804;48.988;2.408;2023-09-19T03:04:06;100713.91;;;19.79;61.23
21290;BME280;10804;48.988;2.408;2023-09-19T03:06:35;100707.75;;;19.78;61.27
21290;BME280;10804;48.988;2.408;2023-09-19T03:09:03;100709.56;;;19.78;61.37
21290;BME280;10804;48.988;2.408;2023-09-19T03:11:38;100703.50;;;19.76;61.41
21290;BME280;10804;48.988;2.408;2023-09-19T03:14:08;100707.09;;;19.75;61.35
21290;BME280;10804;48.988;2.408;2023-09-19T03:16:37;100711.63;;;19.73;61.28
21290;BME280;10804;48.988;2.408;2023-09-19T03:19:04;100709.00;;;19.73;61.41
21290;BME280;10804;48.988;2.408;2023-09-19T03:21:32;100702.94;;;19.71;61.36
21290;BME280;10804;48.988;2.408;2023-09-19T03:24:02;100705.59;;;19.71;61.32
21290;BME280;10804;48.988;2.408;2023-09-19T03:26:30;100706.53;;;19.70;61.33
21290;BME280;10804;48.988;2.408;2023-09-19T03:28:59;100705.78;;;19.68;61.35
21290;BME280;10804;48.988;2.408;2023-09-19T03:31:26;100707.66;;;19.66;61.46
21290;BME280;10804;48.988;2.408;2023-09-19T03:33:54;100706.81;;;19.65;61.44
21290;BME280;10804;48.988;2.408;2023-09-19T03:36:22;100701.63;;;19.64;61.33
21290;BME280;10804;48.988;2.408;2023-09-19T03:38:49;100695.59;;;19.62;61.37
21290;BME280;10804;48.988;2.408;2023-09-19T03:41:17;100700.03;;;19.61;61.41
21290;BME280;10804;48.988;2.408;2023-09-19T03:43:45;100699.16;;;19.61;61.36
21290;BME280;10804;48.988;2.408;2023-09-19T03:46:14;100697.47;;;19.60;61.26
21290;BME280;10804;48.988;2.408;2023-09-19T03:48:42;100705.53;;;19.58;61.38
21290;BME280;10804;48.988;2.408;2023-09-19T03:51:10;100706.44;;;19.57;61.44
21290;BME280;10804;48.988;2.408;2023-09-19T03:53:37;100701.28;;;19.56;61.31
21290;BME280;10804;48.988;2.408;2023-09-19T03:56:05;100707.50;;;19.55;61.30
21290;BME280;10804;48.988;2.408;2023-09-19T03:58:34;100702.31;;;19.53;61.45
21290;BME280;10804;48.988;2.408;2023-09-19T04:01:05;100699.75;;;19.52;61.37
21290;BME280;10804;48.988;2.408;2023-09-19T04:03:34;100701.56;;;19.51;61.46
21290;BME280;10804;48.988;2.408;2023-09-19T04:06:12;100691.06;;;19.50;61.27
21290;BME280;10804;48.988;2.408;2023-09-19T04:08:39;100688.41;;;19.50;61.33
21290;BME280;10804;48.988;2.408;2023-09-19T04:11:07;100694.66;;;19.49;61.45
21290;BME280;10804;48.988;2.408;2023-09-19T04:13:35;100686.81;;;19.47;61.45
21290;BME280;10804;48.988;2.408;2023-09-19T04:16:02;100689.53;;;19.46;61.35
21290;BME280;10804;48.988;2.408;2023-09-19T04:18:30;100692.19;;;19.46;61.41
21290;BME280;10804;48.988;2.408;2023-09-19T04:21:01;100699.28;;;19.45;61.48
21290;BME280;10804;48.988;2.408;2023-09-19T04:23:30;100692.31;;;19.44;61.37
21290;BME280;10804;48.988;2.408;2023-09-19T04:25:58;100698.63;;;19.42;61.51
21290;BME280;10804;48.988;2.408;2023-09-19T04:28:25;100700.31;;;19.43;61.31
21290;BME280;10804;48.988;2.408;2023-09-19T04:30:53;100708.34;;;19.41;61.42
21290;BME280;10804;48.988;2.408;2023-09-19T04:33:22;100706.66;;;19.40;61.45
21290;BME280;10804;48.988;2.408;2023-09-19T04:35:49;100707.50;;;19.41;61.43
21290;BME280;10804;48.988;2.408;2023-09-19T04:38:19;100698.81;;;19.39;61.28
21290;BME280;10804;48.988;2.408;2023-09-19T04:40:46;100698.81;;;19.39;61.24
21290;BME280;10804;48.988;2.408;2023-09-19T04:43:14;100697.09;;;19.38;61.27
21290;BME280;10804;48.988;2.408;2023-09-19T04:45:42;100706.09;;;19.35;61.32
21290;BME280;10804;48.988;2.408;2023-09-19T04:48:09;100712.22;;;19.36;61.31
21290;BME280;10804;48.988;2.408;2023-09-19T04:50:37;100707.03;;;19.34;61.27
21290;BME280;10804;48.988;2.408;2023-09-19T04:53:04;100708.84;;;19.34;61.29
21290;BME280;10804;48.988;2.408;2023-09-19T04:55:34;100709.00;;;19.31;61.30
21290;BME280;10804;48.988;2.408;2023-09-19T04:58:02;100724.78;;;19.32;61.37
21290;BME280;10804;48.988;2.408;2023-09-19T05:00:30;100719.59;;;19.31;61.33
21290;BME280;10804;48.988;2.408;2023-09-19T05:03:01;100717.06;;;19.29;61.46
21290;BME280;10804;48.988;2.408;2023-09-19T05:05:29;100725.81;;;19.30;61.21
21290;BME280;10804;48.988;2.408;2023-09-19T05:07:57;100723.19;;;19.30;61.26
21290;BME280;10804;48.988;2.408;2023-09-19T05:10:25;100719.78;;;19.28;61.30
21290;BME280;10804;48.988;2.408;2023-09-19T05:12:57;100721.56;;;19.27;61.36
21290;BME280;10804;48.988;2.408;2023-09-19T05:15:24;100726.97;;;19.26;61.34
21290;BME280;10804;48.988;2.408;2023-09-19T05:17:52;100727.91;;;19.25;61.23
21290;BME280;10804;48.988;2.408;2023-09-19T05:20:20;100731.50;;;19.24;61.30
21290;BME280;10804;48.988;2.408;2023-09-19T05:23:01;100737.72;;;19.23;61.38
21290;BME280;10804;48.988;2.408;2023-09-19T05:25:30;100730.03;;;19.18;61.52
21290;BME280;10804;48.988;2.408;2023-09-19T05:28:00;100740.34;;;19.23;61.47
21290;BME280;10804;48.988;2.408;2023-09-19T05:30:29;100736.97;;;19.21;61.33
21290;BME280;10804;48.988;2.408;2023-09-19T05:32:57;100733.53;;;19.19;61.32
21290;BME280;10804;48.988;2.408;2023-09-19T05:35:24;100741.47;;;19.19;61.28
21290;BME280;10804;48.988;2.408;2023-09-19T05:37:53;100737.13;;;19.18;61.36
21290;BME280;10804;48.988;2.408;2023-09-19T05:40:22;100740.81;;;19.15;61.46
21290;BME280;10804;48.988;2.408;2023-09-19T05:42:50;100735.53;;;19.15;61.34
21290;BME280;10804;48.988;2.408;2023-09-19T05:45:19;100741.75;;;19.14;61.48
21290;BME280;10804;48.988;2.408;2023-09-19T05:47:48;100740.06;;;19.13;61.40
21290;BME280;10804;48.988;2.408;2023-09-19T05:50:16;100742.78;;;19.12;61.33
21290;BME280;10804;48.988;2.408;2023-09-19T05:52:51;100741.09;;;19.11;61.32
21290;BME280;10804;48.988;2.408;2023-09-19T05:55:18;100751.66;;;19.11;61.28
21290;BME280;10804;48.988;2.408;2023-09-19T05:57:49;100755.25;;;19.10;61.38
21290;BME280;10804;48.988;2.408;2023-09-19T06:00:19;100751.00;;;19.07;61.34
21290;BME280;10804;48.988;2.408;2023-09-19T06:02:51;100755.41;;;19.07;61.39
21290;BME280;10804;48.988;2.408;2023-09-19T06:05:19;100764.28;;;19.06;61.24
21290;BME280;10804;48.988;2.408;2023-09-19T06:07:47;100756.38;;;19.06;61.36
21290;BME280;10804;48.988;2.408;2023-09-19T06:10:15;100751.16;;;19.04;61.29
21290;BME280;10804;48.988;2.408;2023-09-19T06:12:43;100757.31;;;19.05;61.26
21290;BME280;10804;48.988;2.408;2023-09-19T06:15:11;100754.75;;;19.03;61.24
21290;BME280;10804;48.988;2.408;2023-09-19T06:17:45;100764.50;;;19.03;61.31
21290;BME280;10804;48.988;2.408;2023-09-19T06:20:13;100761.09;;;19.01;61.41
21290;BME280;10804;48.988;2.408;2023-09-19T06:22:42;100766.38;;;19.01;61.34
21290;BME280;10804;48.988;2.408;2023-09-19T06:25:09;100771.56;;;19.02;61.28
21290;BME280;10804;48.988;2.408;2023-09-19T06:27:38;100775.06;;;19.03;61.25
21290;BME280;10804;48.988;2.408;2023-09-19T06:30:08;100778.66;;;19.02;61.35
21290;BME280;10804;48.988;2.408;2023-09-19T06:32:37;100768.09;;;19.02;61.19
21290;BME280;10804;48.988;2.408;2023-09-19T06:35:07;100773.38;;;19.02;61.29
21290;BME280;10804;48.988;2.408;2023-09-19T06:37:37;100762.78;;;19.02;61.36
21290;BME280;10804;48.988;2.408;2023-09-19T06:40:07;100767.22;;;19.01;61.36
21290;BME280;10804;48.988;2.408;2023-09-19T06:42:40;100766.38;;;19.01;61.31
21290;BME280;10804;48.988;2.408;2023-09-19T06:45:08;100781.28;;;19.02;61.27
21290;BME280;10804;48.988;2.408;2023-09-19T06:47:37;100772.50;;;19.01;61.22
21290;BME280;10804;48.988;2.408;2023-09-19T06:50:07;100768.91;;;19.02;61.13
21290;BME280;10804;48.988;2.408;2023-09-19T06:52:39;100772.41;;;19.03;61.17
21290;BME280;10804;48.988;2.408;2023-09-19T06:55:07;100770.72;;;19.02;61.17
21290;BME280;10804;48.988;2.408;2023-09-19T06:57:35;100764.50;;;19.03;61.15
21290;BME280;10804;48.988;2.408;2023-09-19T07:00:03;100775.06;;;19.03;61.05
21290;BME280;10804;48.988;2.408;2023-09-19T07:02:35;100781.09;;;19.05;61.18
21290;BME280;10804;48.988;2.408;2023-09-19T07:05:03;100783.75;;;19.05;61.25
21290;BME280;10804;48.988;2.408;2023-09-19T07:07:34;100782.88;;;19.04;61.22
21290;BME280;10804;48.988;2.408;2023-09-19T07:10:02;100780.16;;;19.06;61.06
21290;BME280;10804;48.988;2.408;2023-09-19T07:12:29;100781.84;;;19.07;61.00
21290;BME280;10804;48.988;2.408;2023-09-19T07:14:57;100780.06;;;19.07;61.19
21290;BME280;10804;48.988;2.408;2023-09-19T07:17:27;100779.13;;;19.08;61.11
21290;BME280;10804;48.988;2.408;2023-09-19T07:19:56;100780.81;;;19.09;61.13
21290;BME280;10804;48.988;2.408;2023-09-19T07:22:24;100774.72;;;19.09;61.13
21290;BME280;10804;48.988;2.408;2023-09-19T07:24:52;100775.53;;;19.09;61.07
21290;BME280;10804;48.988;2.408;2023-09-19T07:27:20;100767.53;;;19.11;61.04
21290;BME280;10804;48.988;2.408;2023-09-19T07:29:47;100776.22;;;19.13;60.91
21290;BME280;10804;48.988;2.408;2023-09-19T07:32:15;100769.16;;;19.13;60.95
21290;BME280;10804;48.988;2.408;2023-09-19T07:34:43;100769.03;;;19.15;61.02
21290;BME280;10804;48.988;2.408;2023-09-19T07:37:11;100770.72;;;19.16;60.92
21290;BME280;10804;48.988;2.408;2023-09-19T07:39:39;100768.88;;;19.18;60.78
21290;BME280;10804;48.988;2.408;2023-09-19T07:42:09;100767.00;;;19.20;60.93
21290;BME280;10804;48.988;2.408;2023-09-19T07:44:37;100764.34;;;19.20;60.92
21290;BME280;10804;48.988;2.408;2023-09-19T07:47:04;100765.03;;;19.23;61.03
21290;BME280;10804;48.988;2.408;2023-09-19T07:49:32;100770.22;;;19.25;60.86
21290;BME280;10804;48.988;2.408;2023-09-19T07:52:00;100765.69;;;19.27;60.88
21290;BME280;10804;48.988;2.408;2023-09-19T07:54:28;100770.91;;;19.28;60.76
21290;BME280;10804;48.988;2.408;2023-09-19T07:57:01;100767.31;;;19.29;60.90
21290;BME280;10804;48.988;2.408;2023-09-19T07:59:30;100774.09;;;19.33;60.77
21290;BME280;10804;48.988;2.408;2023-09-19T08:01:57;100767.03;;;19.34;60.85
21290;BME280;10804;48.988;2.408;2023-09-19T08:04:25;100766.06;;;19.35;60.77
21290;BME280;10804;48.988;2.408;2023-09-19T08:06:53;100770.41;;;19.36;60.65
21290;BME280;10804;48.988;2.408;2023-09-19T08:09:24;100771.16;;;19.38;60.59
21290;BME280;10804;48.988;2.408;2023-09-19T08:11:52;100769.31;;;19.40;60.54
21290;BME280;10804;48.988;2.408;2023-09-19T08:14:21;100770.06;;;19.42;60.61
21290;BME280;10804;48.988;2.408;2023-09-19T08:16:56;100767.41;;;19.42;60.54
21290;BME280;10804;48.988;2.408;2023-09-19T08:19:23;100765.50;;;19.44;60.55
21290;BME280;10804;48.988;2.408;2023-09-19T08:21:55;100769.03;;;19.44;60.44
21290;BME280;10804;48.988;2.408;2023-09-19T08:24:25;100767.03;;;19.48;60.52
21290;BME280;10804;48.988;2.408;2023-09-19T08:26:53;100763.44;;;19.49;60.45
21290;BME280;10804;48.988;2.408;2023-09-19T08:29:22;100775.72;;;19.50;60.39
21290;BME280;10804;48.988;2.408;2023-09-19T08:31:55;100764.09;;;19.52;60.36
21290;BME280;10804;48.988;2.408;2023-09-19T08:34:23;100782.50;;;19.54;60.39
21290;BME280;10804;48.988;2.408;2023-09-19T08:36:51;100781.59;;;19.55;60.27
21290;BME280;10804;48.988;2.408;2023-09-19T08:39:18;100773.44;;;19.58;60.35
21290;BME280;10804;48.988;2.408;2023-09-19T08:41:46;100771.56;;;19.60;60.29
21290;BME280;10804;48.988;2.408;2023-09-19T08:44:13;100784.63;;;19.63;60.25
21290;BME280;10804;48.988;2.408;2023-09-19T08:46:41;100773.09;;;19.64;60.15
21290;BME280;10804;48.988;2.408;2023-09-19T08:49:21;100770.31;;;19.65;60.31
21290;BME280;10804;48.988;2.408;2023-09-19T08:51:55;100783.38;;;19.68;60.25
21290;BME280;10804;48.988;2.408;2023-09-19T08:54:32;100785.06;;;19.69;60.07
21290;BME280;10804;48.988;2.408;2023-09-19T08:57:07;100779.69;;;19.71;60.33
21290;BME280;10804;48.988;2.408;2023-09-19T08:59:37;100782.13;;;19.74;60.18
21290;BME280;10804;48.988;2.408;2023-09-19T09:02:11;100776.75;;;19.75;60.17
21290;BME280;10804;48.988;2.408;2023-09-19T09:04:40;100766.06;;;19.77;60.17
21290;BME280;10804;48.988;2.408;2023-09-19T09:07:10;100779.94;;;19.80;60.26
21290;BME280;10804;48.988;2.408;2023-09-19T09:09:39;100783.38;;;19.82;60.30
21290;BME280;10804;48.988;2.408;2023-09-19T09:12:09;100781.47;;;19.84;60.27
21290;BME280;10804;48.988;2.408;2023-09-19T09:14:38;100776.84;;;19.88;60.31
21290;BME280;10804;48.988;2.408;2023-09-19T09:17:05;100776.63;;;19.91;60.41
21290;BME280;10804;48.988;2.408;2023-09-19T09:19:36;100779.28;;;19.91;60.41
21290;BME280;10804;48.988;2.408;2023-09-19T09:22:09;100771.16;;;19.94;60.55
21290;BME280;10804;48.988;2.408;2023-09-19T09:24:37;100766.41;;;19.98;60.36
21290;BME280;10804;48.988;2.408;2023-09-19T09:27:20;100765.44;;;19.99;60.43
21290;BME280;10804;48.988;2.408;2023-09-19T09:29:51;100770.56;;;20.02;60.45
21290;BME280;10804;48.988;2.408;2023-09-19T09:32:23;100774.88;;;20.05;60.45
21290;BME280;10804;48.988;2.408;2023-09-19T09:34:52;100765.88;;;20.08;60.45
21290;BME280;10804;48.988;2.408;2023-09-19T09:37:24;100764.06;;;20.08;60.42
21290;BME280;10804;48.988;2.408;2023-09-19T09:39:53;100768.31;;;20.11;60.55
21290;BME280;10804;48.988;2.408;2023-09-19T09:42:30;100761.97;;;20.13;60.58
21290;BME280;10804;48.988;2.408;2023-09-19T09:45:14;100759.22;;;20.14;60.61
21290;BME280;10804;48.988;2.408;2023-09-19T09:47:43;100751.09;;;20.17;60.56
21290;BME280;10804;48.988;2.408;2023-09-19T09:50:26;100771.31;;;20.18;60.56
21290;BME280;10804;48.988;2.408;2023-09-19T09:53:21;100757.88;;;20.21;60.63
21290;BME280;10804;48.988;2.408;2023-09-19T09:55:59;100757.78;;;20.23;60.71
21290;BME280;10804;48.988;2.408;2023-09-19T09:58:27;100760.13;;;20.27;60.67
21290;BME280;10804;48.988;2.408;2023-09-19T10:00:56;100758.22;;;20.29;60.65
21290;BME280;10804;48.988;2.408;2023-09-19T10:03:31;100758.88;;;20.33;60.74
21290;BME280;10804;48.988;2.408;2023-09-19T10:06:02;100754.22;;;20.36;60.67
21290;BME280;10804;48.988;2.408;2023-09-19T10:08:38;100751.50;;;20.38;60.76
21290;BME280;10804;48.988;2.408;2023-09-19T10:11:16;100744.19;;;20.41;60.74
21290;BME280;10804;48.988;2.408;2023-09-19T10:13:47;100744.94;;;20.43;60.70
21290;BME280;10804;48.988;2.408;2023-09-19T10:16:16;100742.09;;;20.46;60.60
21290;BME280;10804;48.988;2.408;2023-09-19T10:18:53;100728.63;;;20.49;60.60
21290;BME280;10804;48.988;2.408;2023-09-19T10:21:24;100715.16;;;20.52;60.74
21290;BME280;10804;48.988;2.408;2023-09-19T10:23:58;100726.53;;;20.54;60.69
21290;BME280;10804;48.988;2.408;2023-09-19T10:26:26;100722.72;;;20.58;60.58
21290;BME280;10804;48.988;2.408;2023-09-19T10:29:00;100717.22;;;20.61;60.69
21290;BME280;10804;48.988;2.408;2023-09-19T10:31:28;100722.31;;;20.64;60.74
21290;BME280;10804;48.988;2.408;2023-09-19T10:33:58;100715.09;;;20.66;60.63
21290;BME280;10804;48.988;2.408;2023-09-19T10:36:26;100723.69;;;20.70;60.65
21290;BME280;10804;48.988;2.408;2023-09-19T10:38:57;100715.66;;;20.71;60.65
21290;BME280;10804;48.988;2.408;2023-09-19T10:41:29;100716.28;;;20.75;60.67
21290;BME280;10804;48.988;2.408;2023-09-19T10:43:58;100716.94;;;20.78;60.73
21290;BME280;10804;48.988;2.408;2023-09-19T10:46:26;100723.84;;;20.81;60.56
21290;BME280;10804;48.988;2.408;2023-09-19T10:48:53;100717.47;;;20.83;60.46
21290;BME280;10804;48.988;2.408;2023-09-19T10:51:23;100699.66;;;20.85;60.55
21290;BME280;10804;48.988;2.408;2023-09-19T10:53:56;100715.38;;;20.88;60.53
21290;BME280;10804;48.988;2.408;2023-09-19T10:56:32;100708.16;;;20.90;60.56
21290;BME280;10804;48.988;2.408;2023-09-19T10:59:07;100713.38;;;20.92;60.37
21290;BME280;10804;48.988;2.408;2023-09-19T11:01:42;100709.66;;;20.94;60.39
21290;BME280;10804;48.988;2.408;2023-09-19T11:04:22;100706.69;;;20.99;60.47
21290;BME280;10804;48.988;2.408;2023-09-19T11:07:04;100718.03;;;21.01;60.51
21290;BME280;10804;48.988;2.408;2023-09-19T11:09:44;100720.50;;;21.04;60.27
21290;BME280;10804;48.988;2.408;2023-09-19T11:12:48;100716.75;;;21.06;60.24
21290;BME280;10804;48.988;2.408;2023-09-19T11:18:51;100716.47;;;21.11;60.31
21290;BME280;10804;48.988;2.408;2023-09-19T11:21:42;100717.13;;;21.14;60.38
21290;BME280;10804;48.988;2.408;2023-09-19T11:24:31;100712.56;;;21.16;60.29
21290;BME280;10804;48.988;2.408;2023-09-19T11:27:27;100711.38;;;21.20;60.10
21290;BME280;10804;48.988;2.408;2023-09-19T11:30:25;100705.88;;;21.23;60.14
21290;BME280;10804;48.988;2.408;2023-09-19T11:33:15;100718.06;;;21.26;60.04
21290;BME280;10804;48.988;2.408;2023-09-19T11:36:03;100710.94;;;21.26;60.12
21290;BME280;10804;48.988;2.408;2023-09-19T11:38:59;100708.06;;;21.29;59.98
21290;BME280;10804;48.988;2.408;2023-09-19T11:41:38;100711.47;;;21.31;60.02
21290;BME280;10804;48.988;2.408;2023-09-19T11:44:32;100709.47;;;21.35;59.94
21290;BME280;10804;48.988;2.408;2023-09-19T11:47:07;100701.38;;;21.36;59.79
21290;BME280;10804;48.988;2.408;2023-09-19T11:49:40;100704.78;;;21.38;60.00
21290;BME280;10804;48.988;2.408;2023-09-19T11:52:09;100715.19;;;21.41;59.71
21290;BME280;10804;48.988;2.408;2023-09-19T11:54:37;100707.13;;;21.43;59.58
21290;BME280;10804;48.988;2.408;2023-09-19T11:57:07;100701.69;;;21.44;59.80
21290;BME280;10804;48.988;2.408;2023-09-19T11:59:38;100707.75;;;21.46;59.70
21290;BME280;10804;48.988;2.408;2023-09-19T12:02:07;100705.84;;;21.48;59.71
21290;BME280;10804;48.988;2.408;2023-09-19T12:04:35;100702.22;;;21.49;59.58
21290;BME280;10804;48.988;2.408;2023-09-19T12:07:06;100696.72;;;21.52;59.59
21290;BME280;10804;48.988;2.408;2023-09-19T12:09:40;100703.59;;;21.55;59.56
21290;BME280;10804;48.988;2.408;2023-09-19T12:12:10;100709.75;;;21.55;59.62
21290;BME280;10804;48.988;2.408;2023-09-19T12:14:47;100703.47;;;21.56;59.55
21290;BME280;10804;48.988;2.408;2023-09-19T12:17:15;100702.53;;;21.57;59.59
21290;BME280;10804;48.988;2.408;2023-09-19T12:19:49;100697.94;;;21.59;59.62
21290;BME280;10804;48.988;2.408;2023-09-19T12:22:17;100705.81;;;21.61;59.46
21290;BME280;10804;48.988;2.408;2023-09-19T12:24:46;100701.34;;;21.61;59.50
21290;BME280;10804;48.988;2.408;2023-09-19T12:27:15;100703.06;;;21.62;59.44
21290;BME280;10804;48.988;2.408;2023-09-19T12:29:45;100700.19;;;21.65;59.33
21290;BME280;10804;48.988;2.408;2023-09-19T12:32:15;100693.09;;;21.66;59.40
21290;BME280;10804;48.988;2.408;2023-09-19T12:34:50;100685.97;;;21.66;59.35
21290;BME280;10804;48.988;2.408;2023-09-19T12:37:18;100677.03;;;21.67;59.23
21290;BME280;10804;48.988;2.408;2023-09-19T12:39:49;100687.44;;;21.70;59.07
21290;BME280;10804;48.988;2.408;2023-09-19T12:42:19;100689.03;;;21.73;59.16
21290;BME280;10804;48.988;2.408;2023-09-19T12:44:50;100668.63;;;21.73;59.26
21290;BME280;10804;48.988;2.408;2023-09-19T12:47:21;100678.19;;;21.76;59.10
21290;BME280;10804;48.988;2.408;2023-09-19T12:50:06;100664.81;;;21.77;59.03
21290;BME280;10804;48.988;2.408;2023-09-19T12:52:40;100668.19;;;21.79;58.92
21290;BME280;10804;48.988;2.408;2023-09-19T12:55:08;100667.47;;;21.77;58.98
21290;BME280;10804;48.988;2.408;2023-09-19T12:57:37;100668.81;;;21.83;59.01
21290;BME280;10804;48.988;2.408;2023-09-19T13:00:07;100678.38;;;21.85;58.98
21290;BME280;10804;48.988;2.408;2023-09-19T13:02:37;100671.16;;;21.87;58.85
21290;BME280;10804;48.988;2.408;2023-09-19T13:05:04;100673.56;;;21.90;58.74
21290;BME280;10804;48.988;2.408;2023-09-19T13:07:43;100668.16;;;21.92;58.93
21290;BME280;10804;48.988;2.408;2023-09-19T13:10:12;100667.09;;;21.94;58.78
21290;BME280;10804;48.988;2.408;2023-09-19T13:12:42;100668.78;;;21.95;58.53